createdAt,value
2019-02-24T00:03:38.527Z,9.27
2019-02-24T00:08:44.388Z,9.50
2019-02-24T00:13:49.295Z,9.43
2019-02-24T00:18:54.890Z,10.80
2019-02-24T00:23:59.686Z,9.57
2019-02-24T00:29:04.560Z,10.47
2019-02-24T00:34:09.355Z,9.17
2019-02-24T00:39:14.151Z,9.03
2019-02-24T00:44:18.963Z,9.23
2019-02-24T00:49:23.815Z,9.97
2019-02-24T00:54:28.678Z,10.10
2019-02-24T00:59:33.453Z,9.63
2019-02-24T01:04:38.230Z,9.57
2019-02-24T01:09:43.021Z,10.40
2019-02-24T01:14:47.860Z,9.87
2019-02-24T01:19:52.634Z,9.97
2019-02-24T01:24:57.521Z,9.20
2019-02-24T01:30:02.302Z,9.47
2019-02-24T01:35:07.423Z,11.57
2019-02-24T01:40:12.215Z,9.73
2019-02-24T01:45:29.347Z,9.27
2019-02-24T01:50:34.134Z,10.03
2019-02-24T01:55:38.920Z,9.30
2019-02-24T02:00:43.711Z,9.10
2019-02-24T02:05:48.507Z,8.93
2019-02-24T02:10:53.283Z,8.23
2019-02-24T02:15:58.134Z,8.80
2019-02-24T02:21:04.011Z,8.60
2019-02-24T02:26:08.852Z,8.40
2019-02-24T02:31:13.645Z,8.53
2019-02-24T02:36:18.425Z,8.20
2019-02-24T02:41:23.282Z,8.17
2019-02-24T02:46:28.094Z,9.77
2019-02-24T02:51:32.971Z,8.50
2019-02-24T02:56:38.485Z,8.57
2019-02-24T03:01:43.459Z,9.00
2019-02-24T03:07:07.359Z,8.07
2019-02-24T03:12:12.217Z,9.43
2019-02-24T03:17:17.044Z,9.23
2019-02-24T03:22:21.827Z,9.37
2019-02-24T03:27:26.612Z,8.77
2019-02-24T03:32:31.394Z,7.97
2019-02-24T03:37:36.177Z,8.40
2019-02-24T03:42:41.017Z,7.73
2019-02-24T03:47:45.823Z,6.83
2019-02-24T03:52:50.631Z,6.57
2019-02-24T03:57:57.060Z,7.43
2019-02-24T04:03:01.860Z,6.77
2019-02-24T04:08:06.659Z,7.77
2019-02-24T04:13:11.446Z,7.77
2019-02-24T04:18:16.293Z,7.20
2019-02-24T04:23:21.083Z,7.20
2019-02-24T04:28:25.890Z,8.40
2019-02-24T04:33:30.751Z,8.07
2019-02-24T04:38:35.560Z,7.47
2019-02-24T04:43:40.379Z,7.00
2019-02-24T04:48:45.171Z,7.27
2019-02-24T04:53:50.015Z,7.07
2019-02-24T04:58:54.812Z,6.83
2019-02-24T05:03:59.611Z,7.13
2019-02-24T05:09:04.838Z,6.77
2019-02-24T05:14:09.798Z,7.13
2019-02-24T05:19:14.595Z,7.73
2019-02-24T05:24:19.401Z,7.20
2019-02-24T05:29:24.186Z,6.90
2019-02-24T05:34:28.993Z,6.87
2019-02-24T05:39:33.915Z,7.27
2019-02-24T05:44:38.747Z,6.53
2019-02-24T05:49:43.544Z,6.50
2019-02-24T05:54:48.348Z,6.47
2019-02-24T05:59:55.495Z,8.10
2019-02-24T06:04:59.567Z,6.90
2019-02-24T06:10:04.513Z,6.23
2019-02-24T06:15:10.934Z,6.60
2019-02-24T06:20:15.715Z,5.97
2019-02-24T06:25:20.511Z,6.13
2019-02-24T06:30:36.950Z,7.10
2019-02-24T06:35:41.783Z,6.53
2019-02-24T06:40:46.584Z,6.40
2019-02-24T06:45:51.402Z,6.10
2019-02-24T06:51:02.095Z,5.70
2019-02-24T06:56:06.890Z,7.73
2019-02-24T07:01:11.783Z,6.07
2019-02-24T07:06:16.645Z,9.13
2019-02-24T07:11:21.435Z,10.43
2019-02-24T07:16:26.249Z,6.73
2019-02-24T07:21:31.058Z,11.03
2019-02-24T07:26:35.867Z,8.60
2019-02-24T07:31:41.110Z,9.33
2019-02-24T07:36:45.907Z,10.20
2019-02-24T07:41:50.711Z,11.13
2019-02-24T07:46:55.706Z,10.67
2019-02-24T07:52:01.998Z,10.10
2019-02-24T07:57:06.821Z,8.70
2019-02-24T08:02:11.633Z,8.53
2019-02-24T08:07:16.509Z,10.50
2019-02-24T08:12:22.320Z,9.87
2019-02-24T08:17:27.300Z,8.13
2019-02-24T08:22:32.100Z,8.87
2019-02-24T08:27:37.000Z,9.50
2019-02-24T08:32:41.788Z,10.47
2019-02-24T08:37:46.566Z,9.47
2019-02-24T08:42:51.390Z,8.13
2019-02-24T08:47:56.213Z,8.13
2019-02-24T08:53:01.009Z,7.90
2019-02-24T08:58:06.040Z,8.00
2019-02-24T09:03:10.827Z,7.23
2019-02-24T09:08:15.641Z,7.70
2019-02-24T09:13:20.439Z,9.73
2019-02-24T09:18:25.243Z,11.40
2019-02-24T09:23:30.043Z,9.30
2019-02-24T09:28:34.840Z,12.50
2019-02-24T09:33:39.649Z,12.40
2019-02-24T09:38:44.555Z,11.67
2019-02-24T09:43:49.381Z,10.50
2019-02-24T09:48:54.173Z,8.77
2019-02-24T09:53:58.939Z,9.53
2019-02-24T09:59:03.738Z,9.28
2019-02-24T10:04:08.523Z,9.05
2019-02-24T10:09:13.335Z,4.70
2019-02-24T10:14:18.394Z,4.42
2019-02-24T10:19:23.274Z,4.00
2019-02-24T10:24:28.432Z,3.27
2019-02-24T10:29:33.207Z,3.30
2019-02-24T10:34:38.025Z,3.62
2019-02-24T10:39:42.933Z,3.70
2019-02-24T10:44:47.743Z,3.58
2019-02-24T10:49:52.522Z,3.52
2019-02-24T10:54:57.355Z,3.40
2019-02-24T11:00:02.151Z,3.30
2019-02-24T11:05:08.016Z,3.00
2019-02-24T11:10:12.891Z,3.33
2019-02-24T11:15:17.671Z,3.50
2019-02-24T11:20:24.259Z,4.08
2019-02-24T11:25:29.050Z,4.22
2019-02-24T11:30:33.868Z,4.12
2019-02-24T11:35:38.678Z,3.80
2019-02-24T11:40:43.458Z,3.50
2019-02-24T11:45:48.270Z,3.58
2019-02-24T11:50:53.047Z,3.52
2019-02-24T11:55:57.843Z,3.98
2019-02-24T12:01:02.634Z,3.02
2019-02-24T12:06:07.427Z,3.33
2019-02-24T12:11:12.224Z,2.83
2019-02-24T12:16:17.041Z,3.17
2019-02-24T12:21:21.811Z,3.55
2019-02-24T12:26:26.615Z,3.30
2019-02-24T12:31:31.771Z,3.55
2019-02-24T12:36:37.752Z,3.90
2019-02-24T12:41:42.525Z,3.62
2019-02-24T12:46:47.346Z,3.42
2019-02-24T12:51:52.118Z,3.83
2019-02-24T12:56:56.919Z,3.67
2019-02-24T13:02:05.642Z,3.58
2019-02-24T13:07:08.115Z,3.17
2019-02-24T13:12:12.927Z,3.47
2019-02-24T13:17:17.700Z,3.70
2019-02-24T13:22:22.484Z,3.42
2019-02-24T13:27:27.269Z,3.27
2019-02-24T13:32:32.064Z,3.02
2019-02-24T13:37:36.876Z,3.37
2019-02-24T13:42:41.696Z,3.45
2019-02-24T13:47:46.479Z,3.65
2019-02-24T13:52:51.251Z,3.27
2019-02-24T13:57:56.018Z,3.50
2019-02-24T14:03:00.797Z,4.45
2019-02-24T14:08:05.572Z,3.62
2019-02-24T14:13:10.392Z,3.33
2019-02-24T14:18:15.203Z,3.10
2019-02-24T14:23:19.975Z,3.75
2019-02-24T14:28:24.758Z,4.03
2019-02-24T14:33:29.535Z,4.33
2019-02-24T14:38:34.324Z,3.72
2019-02-24T14:43:39.130Z,4.40
2019-02-24T14:48:44.806Z,3.22
2019-02-24T14:53:49.587Z,3.45
2019-02-24T14:58:54.347Z,3.72
2019-02-24T15:03:59.134Z,8.88
2019-02-24T15:09:04.018Z,4.03
2019-02-24T15:14:10.720Z,4.40
2019-02-24T15:19:15.543Z,4.05
2019-02-24T15:24:20.318Z,4.17
2019-02-24T15:29:25.385Z,4.05
2019-02-24T15:34:30.164Z,4.30
2019-02-24T15:39:34.944Z,4.20
2019-02-24T15:44:39.743Z,3.77
2019-02-24T15:49:44.552Z,4.10
2019-02-24T15:54:49.327Z,4.23
2019-02-24T15:59:54.110Z,4.40
2019-02-24T16:04:58.884Z,4.10
2019-02-24T16:10:03.773Z,4.53
2019-02-24T16:15:11.170Z,4.17
2019-02-24T16:20:18.624Z,4.15
2019-02-24T16:25:23.403Z,4.40
2019-02-24T16:30:29.625Z,5.00
2019-02-24T16:35:34.396Z,3.75
2019-02-24T16:40:39.171Z,4.42
2019-02-24T16:45:44.004Z,3.87
2019-02-24T16:50:48.776Z,4.50
2019-02-24T16:55:53.598Z,4.47
2019-02-24T17:00:58.375Z,4.12
2019-02-24T17:06:03.265Z,4.42
2019-02-24T17:11:08.475Z,4.08
2019-02-24T17:16:13.281Z,4.08
2019-02-24T17:21:18.058Z,4.90
2019-02-24T17:26:23.134Z,4.40
2019-02-24T17:31:28.710Z,4.37
2019-02-24T17:36:33.512Z,5.10
2019-02-24T17:41:38.288Z,5.33
2019-02-24T17:46:43.100Z,5.08
2019-02-24T17:51:47.876Z,6.28
2019-02-24T17:56:52.650Z,5.33
2019-02-24T18:01:57.424Z,5.95
2019-02-24T18:07:02.227Z,5.78
2019-02-24T18:12:07.020Z,5.25
2019-02-24T18:17:11.815Z,5.80
2019-02-24T18:22:16.613Z,5.67
2019-02-24T18:27:21.502Z,5.70
2019-02-24T18:32:26.327Z,6.17
2019-02-24T18:37:31.123Z,5.67
2019-02-24T18:42:35.948Z,7.37
2019-02-24T18:47:40.745Z,8.43
2019-02-24T18:52:45.514Z,9.85
2019-02-24T18:57:50.311Z,9.35
2019-02-24T19:02:55.226Z,9.50
2019-02-24T19:08:00.090Z,8.93
2019-02-24T19:13:04.888Z,8.80
2019-02-24T19:18:09.692Z,9.57
2019-02-24T19:23:14.543Z,9.03
2019-02-24T19:28:19.318Z,9.03
2019-02-24T19:33:24.127Z,8.73
2019-02-24T19:38:28.911Z,8.63
2019-02-24T19:43:33.755Z,8.83
2019-02-24T19:48:42.067Z,8.83
2019-02-24T19:53:44.946Z,9.00
2019-02-24T19:58:49.732Z,10.30
2019-02-24T20:03:54.504Z,9.77
2019-02-24T20:08:59.311Z,8.83
2019-02-24T20:14:04.127Z,8.57
2019-02-24T20:19:08.900Z,7.50
2019-02-24T20:24:13.696Z,8.03
2019-02-24T20:29:18.481Z,8.37
2019-02-24T20:34:25.781Z,7.57
2019-02-24T20:39:29.662Z,7.70
2019-02-24T20:44:34.476Z,6.83
2019-02-24T20:49:39.267Z,7.50
2019-02-24T20:54:44.051Z,6.77
2019-02-24T20:59:48.831Z,7.13
2019-02-24T21:04:53.622Z,7.40
2019-02-24T21:09:58.398Z,7.50
2019-02-24T21:15:03.184Z,6.97
2019-02-24T21:20:10.667Z,7.30
2019-02-24T21:25:15.471Z,7.77
2019-02-24T21:30:20.331Z,7.47
2019-02-24T21:35:25.127Z,8.93
2019-02-24T21:40:29.907Z,7.40
2019-02-24T21:45:34.723Z,7.23
2019-02-24T21:50:39.495Z,7.20
2019-02-24T21:55:44.267Z,7.90
2019-02-24T22:00:49.039Z,9.53
2019-02-24T22:05:53.815Z,7.60
2019-02-24T22:10:58.606Z,7.63
2019-02-24T22:16:03.382Z,7.17
2019-02-24T22:21:08.163Z,7.27
2019-02-24T22:26:12.930Z,7.50
2019-02-24T22:31:17.712Z,7.10
2019-02-24T22:36:22.491Z,7.63
2019-02-24T22:41:27.265Z,7.10
2019-02-24T22:46:32.079Z,6.90
2019-02-24T22:51:36.855Z,6.77
2019-02-24T22:56:41.632Z,7.30
2019-02-24T23:01:46.883Z,6.60
2019-02-24T23:06:51.741Z,6.90
2019-02-24T23:11:56.810Z,6.20
2019-02-24T23:17:01.586Z,6.03
2019-02-24T23:22:07.424Z,6.93
2019-02-24T23:27:12.208Z,7.37
2019-02-24T23:32:16.995Z,7.53
2019-02-24T23:37:21.772Z,7.33
2019-02-24T23:42:26.543Z,7.53
2019-02-24T23:47:31.359Z,7.17
2019-02-24T23:52:36.161Z,8.23
2019-02-24T23:57:40.930Z,7.93
